sensor_id;sensor_type;location;lat;lon;timestamp;pressure;altitude;pressure_sealevel;temperature;humidity
21658;BME280;10990;48.174;9.782;2023-04-01T00:01:10;92982.78;;;7.32;100.00
21658;BME280;10990;48.174;9.782;2023-04-01T00:03:39;92983.94;;;7.23;100.00
21658;BME280;10990;48.174;9.782;2023-04-01T00:06:06;92973.16;;;7.11;100.00
21658;BME280;10990;48.174;9.782;2023-04-01T00:08:33;92975.63;;;7.19;100.00
21658;BME280;10990;48.174;9.782;2023-04-01T00:10:59;92969.56;;;7.19;100.00
21658;BME280;10990;48.174;9.782;2023-04-01T00:13:26;92976.19;;;7.08;100.00
21658;BME280;10990;48.174;9.782;2023-04-01T00:15:54;92973.56;;;7.08;100.00
21658;BME280;10990;48.174;9.782;2023-04-01T00:18:22;92983.41;;;7.00;100.00
21658;BME280;10990;48.174;9.782;2023-04-01T00:20:50;92999.53;;;6.90;100.00
21658;BME280;10990;48.174;9.782;2023-04-01T00:23:18;92993.06;;;6.92;100.00
21658;BME280;10990;48.174;9.782;2023-04-01T00:25:45;93010.84;;;6.90;100.00
21658;BME280;10990;48.174;9.782;2023-04-01T00:28:13;93013.00;;;6.80;100.00
21658;BME280;10990;48.174;9.782;2023-04-01T00:30:40;93021.31;;;6.84;100.00
21658;BME280;10990;48.174;9.782;2023-04-01T00:33:07;93031.63;;;6.85;100.00
21658;BME280;10990;48.174;9.782;2023-04-01T00:35:35;93116.84;;;6.76;100.00
21658;BME280;10990;48.174;9.782;2023-04-01T00:38:02;93127.00;;;6.86;100.00
21658;BME280;10990;48.174;9.782;2023-04-01T00:40:31;93138.84;;;6.75;100.00
21658;BME280;10990;48.174;9.782;2023-04-01T00:42:58;93148.78;;;6.80;100.00
21658;BME280;10990;48.174;9.782;2023-04-01T00:45:37;93157.69;;;6.79;100.00
21658;BME280;10990;48.174;9.782;2023-04-01T00:48:08;93154.03;;;6.80;100.00
21658;BME280;10990;48.174;9.782;2023-04-01T00:50:39;93166.75;;;6.76;100.00
21658;BME280;10990;48.174;9.782;2023-04-01T00:53:07;93152.09;;;6.88;100.00
21658;BME280;10990;48.174;9.782;2023-04-01T00:55:36;93153.47;;;6.84;100.00
21658;BME280;10990;48.174;9.782;2023-04-01T00:58:08;93159.22;;;6.94;100.00
21658;BME280;10990;48.174;9.782;2023-04-01T01:00:37;93158.84;;;6.97;100.00
21658;BME280;10990;48.174;9.782;2023-04-01T01:03:05;93158.34;;;6.87;100.00
21658;BME280;10990;48.174;9.782;2023-04-01T01:05:46;93157.34;;;6.88;100.00
21658;BME280;10990;48.174;9.782;2023-04-01T01:08:23;93173.88;;;6.82;100.00
21658;BME280;10990;48.174;9.782;2023-04-01T01:10:56;93168.03;;;6.87;100.00
21658;BME280;10990;48.174;9.782;2023-04-01T01:13:27;93160.31;;;6.79;100.00
21658;BME280;10990;48.174;9.782;2023-04-01T01:16:00;93156.72;;;6.86;100.00
21658;BME280;10990;48.174;9.782;2023-04-01T01:18:34;93152.09;;;6.67;100.00
21658;BME280;10990;48.174;9.782;2023-04-01T01:24:20;93146.84;;;6.67;100.00
21658;BME280;10990;48.174;9.782;2023-04-01T01:26:56;93159.38;;;6.65;100.00
21658;BME280;10990;48.174;9.782;2023-04-01T01:29:40;93162.72;;;6.59;100.00
21658;BME280;10990;48.174;9.782;2023-04-01T01:32:16;93164.72;;;6.57;100.00
21658;BME280;10990;48.174;9.782;2023-04-01T01:34:52;93163.94;;;6.56;100.00
21658;BME280;10990;48.174;9.782;2023-04-01T01:37:25;93171.16;;;6.54;100.00
21658;BME280;10990;48.174;9.782;2023-04-01T01:39:56;93172.97;;;6.54;100.00
21658;BME280;10990;48.174;9.782;2023-04-01T01:42:25;93170.59;;;6.59;100.00
21658;BME280;10990;48.174;9.782;2023-04-01T01:44:55;93169.41;;;6.61;100.00
21658;BME280;10990;48.174;9.782;2023-04-01T01:47:25;93163.97;;;6.63;100.00
21658;BME280;10990;48.174;9.782;2023-04-01T01:49:55;93160.44;;;6.70;100.00
21658;BME280;10990;48.174;9.782;2023-04-01T01:52:23;93168.69;;;6.67;100.00
21658;BME280;10990;48.174;9.782;2023-04-01T01:54:53;93161.09;;;6.58;100.00
21658;BME280;10990;48.174;9.782;2023-04-01T01:57:25;93165.22;;;6.45;100.00
21658;BME280;10990;48.174;9.782;2023-04-01T02:00:00;93171.81;;;6.41;100.00
21658;BME280;10990;48.174;9.782;2023-04-01T02:02:39;93169.94;;;6.35;100.00
21658;BME280;10990;48.174;9.782;2023-04-01T02:05:07;93168.69;;;6.31;100.00
21658;BME280;10990;48.174;9.782;2023-04-01T02:07:39;93163.44;;;6.31;100.00
21658;BME280;10990;48.174;9.782;2023-04-01T02:10:09;93172.50;;;6.28;100.00
21658;BME280;10990;48.174;9.782;2023-04-01T02:12:37;93165.91;;;6.18;100.00
21658;BME280;10990;48.174;9.782;2023-04-01T02:15:07;93166.94;;;6.17;100.00
21658;BME280;10990;48.174;9.782;2023-04-01T02:17:38;93170.78;;;6.21;100.00
21658;BME280;10990;48.174;9.782;2023-04-01T02:20:09;93171.34;;;6.16;100.00
21658;BME280;10990;48.174;9.782;2023-04-01T02:22:41;93175.03;;;6.22;100.00
21658;BME280;10990;48.174;9.782;2023-04-01T02:25:13;93163.28;;;6.18;100.00
21658;BME280;10990;48.174;9.782;2023-04-01T02:27:43;93171.09;;;6.11;100.00
21658;BME280;10990;48.174;9.782;2023-04-01T02:30:11;93165.91;;;6.18;100.00
21658;BME280;10990;48.174;9.782;2023-04-01T02:32:39;93166.19;;;6.08;100.00
21658;BME280;10990;48.174;9.782;2023-04-01T02:35:07;93168.38;;;6.04;100.00
21658;BME280;10990;48.174;9.782;2023-04-01T02:37:36;93158.22;;;6.16;100.00
21658;BME280;10990;48.174;9.782;2023-04-01T02:40:06;93161.59;;;6.10;100.00
21658;BME280;10990;48.174;9.782;2023-04-01T02:42:34;93164.66;;;6.14;100.00
21658;BME280;10990;48.174;9.782;2023-04-01T02:45:00;93162.38;;;6.25;100.00
21658;BME280;10990;48.174;9.782;2023-04-01T02:47:27;93156.75;;;6.28;100.00
21658;BME280;10990;48.174;9.782;2023-04-01T02:49:54;93152.06;;;6.24;100.00
21658;BME280;10990;48.174;9.782;2023-04-01T02:52:24;93158.47;;;6.21;100.00
21658;BME280;10990;48.174;9.782;2023-04-01T02:54:51;93153.50;;;6.26;100.00
21658;BME280;10990;48.174;9.782;2023-04-01T02:57:19;93149.69;;;6.29;100.00
21658;BME280;10990;48.174;9.782;2023-04-01T02:59:46;93148.63;;;6.23;100.00
21658;BME280;10990;48.174;9.782;2023-04-01T03:02:14;93152.06;;;6.24;100.00
21658;BME280;10990;48.174;9.782;2023-04-01T03:04:41;93136.56;;;6.29;100.00
21658;BME280;10990;48.174;9.782;2023-04-01T03:07:08;93134.59;;;6.31;100.00
21658;BME280;10990;48.174;9.782;2023-04-01T03:09:35;93130.06;;;6.25;100.00
21658;BME280;10990;48.174;9.782;2023-04-01T03:12:02;93126.50;;;6.33;100.00
21658;BME280;10990;48.174;9.782;2023-04-01T03:14:36;93126.72;;;6.31;100.00
21658;BME280;10990;48.174;9.782;2023-04-01T03:17:03;93124.31;;;6.36;100.00
21658;BME280;10990;48.174;9.782;2023-04-01T03:19:31;93118.25;;;6.36;100.00
21658;BME280;10990;48.174;9.782;2023-04-01T03:22:01;93121.34;;;6.39;100.00
21658;BME280;10990;48.174;9.782;2023-04-01T03:24:28;93123.97;;;6.39;100.00
21658;BME280;10990;48.174;9.782;2023-04-01T03:26:55;93128.16;;;6.34;100.00
21658;BME280;10990;48.174;9.782;2023-04-01T03:29:21;93135.88;;;6.42;100.00
21658;BME280;10990;48.174;9.782;2023-04-01T03:31:50;93130.56;;;6.35;100.00
21658;BME280;10990;48.174;9.782;2023-04-01T03:34:16;93134.63;;;6.38;100.00
21658;BME280;10990;48.174;9.782;2023-04-01T03:36:43;93128.84;;;6.42;100.00
21658;BME280;10990;48.174;9.782;2023-04-01T03:39:11;93133.09;;;6.43;100.00
21658;BME280;10990;48.174;9.782;2023-04-01T03:41:40;93133.47;;;6.40;100.00
21658;BME280;10990;48.174;9.782;2023-04-01T03:44:07;93141.34;;;6.40;100.00
21658;BME280;10990;48.174;9.782;2023-04-01T03:46:34;93141.72;;;6.37;100.00
21658;BME280;10990;48.174;9.782;2023-04-01T03:49:02;93140.44;;;6.33;100.00
21658;BME280;10990;48.174;9.782;2023-04-01T03:51:29;93144.44;;;6.29;100.00
21658;BME280;10990;48.174;9.782;2023-04-01T03:53:55;93148.41;;;6.25;100.00
21658;BME280;10990;48.174;9.782;2023-04-01T03:56:22;93145.56;;;6.20;100.00
21658;BME280;10990;48.174;9.782;2023-04-01T03:58:49;93153.34;;;6.13;100.00
21658;BME280;10990;48.174;9.782;2023-04-01T04:01:18;93167.56;;;6.04;100.00
21658;BME280;10990;48.174;9.782;2023-04-01T04:03:46;93149.28;;;6.11;100.00
21658;BME280;10990;48.174;9.782;2023-04-01T04:06:17;93157.06;;;6.04;100.00
21658;BME280;10990;48.174;9.782;2023-04-01T04:08:44;93161.88;;;6.00;100.00
21658;BME280;10990;48.174;9.782;2023-04-01T04:11:11;93171.91;;;5.97;100.00
21658;BME280;10990;48.174;9.782;2023-04-01T04:13:41;93167.94;;;6.01;100.00
21658;BME280;10990;48.174;9.782;2023-04-01T04:16:09;93170.56;;;6.01;100.00
21658;BME280;10990;48.174;9.782;2023-04-01T04:18:39;93170.00;;;5.91;100.00
21658;BME280;10990;48.174;9.782;2023-04-01T04:21:06;93179.16;;;5.95;100.00
21658;BME280;10990;48.174;9.782;2023-04-01T04:23:34;93171.75;;;5.98;100.00
21658;BME280;10990;48.174;9.782;2023-04-01T04:26:05;93178.97;;;5.96;100.00
21658;BME280;10990;48.174;9.782;2023-04-01T04:28:33;93180.31;;;5.92;100.00
21658;BME280;10990;48.174;9.782;2023-04-01T04:31:00;93181.66;;;5.88;100.00
21658;BME280;10990;48.174;9.782;2023-04-01T04:33:27;93190.53;;;5.87;100.00
21658;BME280;10990;48.174;9.782;2023-04-01T04:35:56;93185.66;;;5.84;100.00
21658;BME280;10990;48.174;9.782;2023-04-01T04:38:23;93188.00;;;5.94;100.00
21658;BME280;10990;48.174;9.782;2023-04-01T04:40:51;93193.91;;;5.96;100.00
21658;BME280;10990;48.174;9.782;2023-04-01T04:43:18;93185.41;;;6.09;100.00
21658;BME280;10990;48.174;9.782;2023-04-01T04:45:45;93184.03;;;6.13;100.00
21658;BME280;10990;48.174;9.782;2023-04-01T04:48:15;93193.78;;;6.19;100.00
21658;BME280;10990;48.174;9.782;2023-04-01T04:50:44;93195.59;;;6.18;100.00
21658;BME280;10990;48.174;9.782;2023-04-01T04:53:11;93195.78;;;6.17;100.00
21658;BME280;10990;48.174;9.782;2023-04-01T04:55:42;93192.53;;;6.15;100.00
21658;BME280;10990;48.174;9.782;2023-04-01T04:58:31;93191.63;;;6.07;100.00
21658;BME280;10990;48.174;9.782;2023-04-01T05:00:59;93190.72;;;6.15;100.00
21658;BME280;10990;48.174;9.782;2023-04-01T05:03:29;93190.06;;;6.13;100.00
21658;BME280;10990;48.174;9.782;2023-04-01T05:05:56;93197.78;;;6.15;100.00
21658;BME280;10990;48.174;9.782;2023-04-01T05:08:23;93206.91;;;6.19;100.00
21658;BME280;10990;48.174;9.782;2023-04-01T05:10:50;93201.03;;;6.17;100.00
21658;BME280;10990;48.174;9.782;2023-04-01T05:13:16;93206.44;;;6.30;100.00
21658;BME280;10990;48.174;9.782;2023-04-01T05:15:47;93206.00;;;6.26;100.00
21658;BME280;10990;48.174;9.782;2023-04-01T05:18:15;93201.66;;;6.34;100.00
21658;BME280;10990;48.174;9.782;2023-04-01T05:20:46;93200.19;;;6.31;100.00
21658;BME280;10990;48.174;9.782;2023-04-01T05:23:13;93204.28;;;6.34;100.00
21658;BME280;10990;48.174;9.782;2023-04-01T05:25:40;93201.19;;;6.30;100.00
21658;BME280;10990;48.174;9.782;2023-04-01T05:28:07;93214.56;;;6.35;100.00
21658;BME280;10990;48.174;9.782;2023-04-01T05:30:34;93204.78;;;6.44;100.00
21658;BME280;10990;48.174;9.782;2023-04-01T05:33:18;93220.34;;;6.45;100.00
21658;BME280;10990;48.174;9.782;2023-04-01T05:35:44;93225.50;;;6.54;100.00
21658;BME280;10990;48.174;9.782;2023-04-01T05:38:12;93235.31;;;6.45;100.00
21658;BME280;10990;48.174;9.782;2023-04-01T05:40:38;93233.38;;;6.54;100.00
21658;BME280;10990;48.174;9.782;2023-04-01T05:43:05;93242.88;;;6.55;100.00
21658;BME280;10990;48.174;9.782;2023-04-01T05:45:32;93241.31;;;6.60;100.00
21658;BME280;10990;48.174;9.782;2023-04-01T05:48:11;93253.28;;;6.63;100.00
21658;BME280;10990;48.174;9.782;2023-04-01T05:50:41;93242.66;;;6.71;100.00
21658;BME280;10990;48.174;9.782;2023-04-01T05:53:09;93237.56;;;6.69;100.00
21658;BME280;10990;48.174;9.782;2023-04-01T05:55:37;93235.75;;;6.70;100.00
21658;BME280;10990;48.174;9.782;2023-04-01T05:58:04;93260.88;;;6.58;100.00
21658;BME280;10990;48.174;9.782;2023-04-01T06:00:31;93250.81;;;6.61;100.00
21658;BME280;10990;48.174;9.782;2023-04-01T06:02:59;93251.22;;;6.80;100.00
21658;BME280;10990;48.174;9.782;2023-04-01T06:05:28;93248.31;;;7.11;100.00
21658;BME280;10990;48.174;9.782;2023-04-01T06:07:59;93250.38;;;7.15;100.00
21658;BME280;10990;48.174;9.782;2023-04-01T06:10:37;93234.31;;;7.53;100.00
21658;BME280;10990;48.174;9.782;2023-04-01T06:13:08;93227.28;;;7.60;100.00
21658;BME280;10990;48.174;9.782;2023-04-01T06:15:40;93208.88;;;7.60;100.00
21658;BME280;10990;48.174;9.782;2023-04-01T06:21:10;93226.84;;;7.85;100.00
21658;BME280;10990;48.174;9.782;2023-04-01T06:24:05;93220.72;;;8.13;100.00
21658;BME280;10990;48.174;9.782;2023-04-01T06:26:42;93222.81;;;7.89;100.00
21658;BME280;10990;48.174;9.782;2023-04-01T06:29:41;93220.50;;;8.07;100.00
21658;BME280;10990;48.174;9.782;2023-04-01T06:32:27;93227.31;;;7.95;100.00
21658;BME280;10990;48.174;9.782;2023-04-01T06:35:17;93237.72;;;7.75;100.00
21658;BME280;10990;48.174;9.782;2023-04-01T06:41:09;93227.44;;;7.80;100.00
21658;BME280;10990;48.174;9.782;2023-04-01T06:43:50;93215.50;;;7.84;100.00
21658;BME280;10990;48.174;9.782;2023-04-01T06:46:48;93219.81;;;7.92;100.00
21658;BME280;10990;48.174;9.782;2023-04-01T06:49:47;93168.22;;;7.98;100.00
21658;BME280;10990;48.174;9.782;2023-04-01T06:52:41;93177.06;;;7.83;100.00
21658;BME280;10990;48.174;9.782;2023-04-01T06:55:36;93172.72;;;8.11;100.00
21658;BME280;10990;48.174;9.782;2023-04-01T06:58:20;93165.09;;;8.22;100.00
21658;BME280;10990;48.174;9.782;2023-04-01T07:00:49;93172.31;;;8.55;100.00
21658;BME280;10990;48.174;9.782;2023-04-01T07:03:21;93169.91;;;8.60;100.00
21658;BME280;10990;48.174;9.782;2023-04-01T07:05:49;93190.75;;;8.48;100.00
21658;BME280;10990;48.174;9.782;2023-04-01T07:08:22;93194.75;;;8.44;100.00
21658;BME280;10990;48.174;9.782;2023-04-01T07:10:53;93177.97;;;8.45;100.00
21658;BME280;10990;48.174;9.782;2023-04-01T07:13:50;93171.59;;;9.14;100.00
21658;BME280;10990;48.174;9.782;2023-04-01T07:16:23;93226.19;;;9.34;100.00
21658;BME280;10990;48.174;9.782;2023-04-01T07:18:54;93252.16;;;9.77;100.00
21658;BME280;10990;48.174;9.782;2023-04-01T07:21:34;93270.44;;;9.45;100.00
21658;BME280;10990;48.174;9.782;2023-04-01T07:24:16;93273.91;;;9.72;100.00
21658;BME280;10990;48.174;9.782;2023-04-01T07:26:53;93296.63;;;9.73;100.00
21658;BME280;10990;48.174;9.782;2023-04-01T07:29:25;93297.66;;;9.72;100.00
21658;BME280;10990;48.174;9.782;2023-04-01T07:34:59;93323.84;;;9.60;100.00
21658;BME280;10990;48.174;9.782;2023-04-01T07:37:31;93329.69;;;9.42;100.00
21658;BME280;10990;48.174;9.782;2023-04-01T07:40:14;93321.97;;;9.54;100.00
21658;BME280;10990;48.174;9.782;2023-04-01T07:42:55;93328.69;;;9.57;100.00
21658;BME280;10990;48.174;9.782;2023-04-01T07:45:30;93324.75;;;9.13;100.00
21658;BME280;10990;48.174;9.782;2023-04-01T07:48:14;93322.88;;;9.00;100.00
21658;BME280;10990;48.174;9.782;2023-04-01T07:50:46;93316.41;;;9.09;100.00
21658;BME280;10990;48.174;9.782;2023-04-01T07:53:21;93315.13;;;8.92;100.00
21658;BME280;10990;48.174;9.782;2023-04-01T07:55:58;93314.34;;;8.98;100.00
21658;BME280;10990;48.174;9.782;2023-04-01T07:58:29;93313.75;;;8.96;100.00
21658;BME280;10990;48.174;9.782;2023-04-01T08:01:09;93322.22;;;8.85;100.00
21658;BME280;10990;48.174;9.782;2023-04-01T08:03:55;93306.31;;;8.65;100.00
21658;BME280;10990;48.174;9.782;2023-04-01T08:06:30;93307.84;;;8.87;100.00
21658;BME280;10990;48.174;9.782;2023-04-01T08:09:05;93309.19;;;8.77;100.00
21658;BME280;10990;48.174;9.782;2023-04-01T08:12:04;93281.81;;;8.71;100.00
21658;BME280;10990;48.174;9.782;2023-04-01T08:15:03;93306.91;;;8.67;100.00
21658;BME280;10990;48.174;9.782;2023-04-01T08:18:15;93282.25;;;8.81;100.00
21658;BME280;10990;48.174;9.782;2023-04-01T08:20:48;93315.59;;;8.61;100.00
21658;BME280;10990;48.174;9.782;2023-04-01T08:23:19;93294.00;;;8.79;100.00
21658;BME280;10990;48.174;9.782;2023-04-01T08:25:52;93297.69;;;8.84;100.00
21658;BME280;10990;48.174;9.782;2023-04-01T08:28:27;93298.75;;;9.03;100.00
21658;BME280;10990;48.174;9.782;2023-04-01T08:31:01;93288.22;;;9.10;100.00
21658;BME280;10990;48.174;9.782;2023-04-01T08:33:33;93280.59;;;9.41;100.00
21658;BME280;10990;48.174;9.782;2023-04-01T08:36:07;93320.31;;;9.27;100.00
21658;BME280;10990;48.174;9.782;2023-04-01T08:38:40;93316.34;;;9.57;100.00
21658;BME280;10990;48.174;9.782;2023-04-01T08:41:22;93351.59;;;9.36;100.00
21658;BME280;10990;48.174;9.782;2023-04-01T08:47:40;93339.94;;;9.11;100.00
21658;BME280;10990;48.174;9.782;2023-04-01T08:50:36;93340.53;;;9.06;100.00
21658;BME280;10990;48.174;9.782;2023-04-01T08:53:31;93343.78;;;9.08;100.00
21658;BME280;10990;48.174;9.782;2023-04-01T08:56:09;93340.41;;;9.28;100.00
21658;BME280;10990;48.174;9.782;2023-04-01T08:59:01;93356.16;;;9.08;100.00
21658;BME280;10990;48.174;9.782;2023-04-01T09:01:52;93350.25;;;8.99;100.00
21658;BME280;10990;48.174;9.782;2023-04-01T09:08:00;93367.09;;;8.63;100.00
21658;BME280;10990;48.174;9.782;2023-04-01T09:14:07;93407.41;;;8.57;100.00
21658;BME280;10990;48.174;9.782;2023-04-01T09:19:53;93382.09;;;8.63;100.00
21658;BME280;10990;48.174;9.782;2023-04-01T09:22:39;93400.53;;;8.63;100.00
21658;BME280;10990;48.174;9.782;2023-04-01T09:25:38;93400.56;;;8.69;100.00
21658;BME280;10990;48.174;9.782;2023-04-01T09:28:18;93405.03;;;8.69;100.00
21658;BME280;10990;48.174;9.782;2023-04-01T09:31:00;93422.25;;;8.65;100.00
21658;BME280;10990;48.174;9.782;2023-04-01T09:34:12;93423.63;;;8.61;100.00
21658;BME280;10990;48.174;9.782;2023-04-01T09:37:10;93446.66;;;8.52;100.00
21658;BME280;10990;48.174;9.782;2023-04-01T09:39:50;93447.03;;;8.49;100.00
21658;BME280;10990;48.174;9.782;2023-04-01T09:42:41;93443.78;;;8.47;100.00
21658;BME280;10990;48.174;9.782;2023-04-01T09:45:41;93437.06;;;8.44;100.00
21658;BME280;10990;48.174;9.782;2023-04-01T09:51:17;93446.50;;;8.53;100.00
21658;BME280;10990;48.174;9.782;2023-04-01T09:53:59;93447.44;;;8.46;100.00
21658;BME280;10990;48.174;9.782;2023-04-01T10:00:05;93436.75;;;8.54;100.00
21658;BME280;10990;48.174;9.782;2023-04-01T10:06:11;93431.59;;;8.67;100.00
21658;BME280;10990;48.174;9.782;2023-04-01T10:09:14;93455.31;;;8.67;100.00
21658;BME280;10990;48.174;9.782;2023-04-01T10:15:32;93460.56;;;8.67;100.00
21658;BME280;10990;48.174;9.782;2023-04-01T10:18:22;93463.13;;;8.61;100.00
21658;BME280;10990;48.174;9.782;2023-04-01T10:24:00;93466.31;;;8.78;100.00
21658;BME280;10990;48.174;9.782;2023-04-01T10:26:40;93471.66;;;8.91;100.00
21658;BME280;10990;48.174;9.782;2023-04-01T10:29:54;93445.72;;;8.94;100.00
21658;BME280;10990;48.174;9.782;2023-04-01T10:39:13;93433.44;;;9.08;100.00
21658;BME280;10990;48.174;9.782;2023-04-01T10:45:39;93413.28;;;9.42;100.00
21658;BME280;10990;48.174;9.782;2023-04-01T10:48:23;93400.09;;;9.42;100.00
21658;BME280;10990;48.174;9.782;2023-04-01T10:51:23;93401.69;;;9.36;100.00
21658;BME280;10990;48.174;9.782;2023-04-01T10:54:19;93363.84;;;9.57;100.00
21658;BME280;10990;48.174;9.782;2023-04-01T10:56:55;93344.53;;;9.50;100.00
21658;BME280;10990;48.174;9.782;2023-04-01T11:07:04;93322.28;;;9.11;100.00
21658;BME280;10990;48.174;9.782;2023-04-01T11:13:02;93246.28;;;9.35;100.00
21658;BME280;10990;48.174;9.782;2023-04-01T11:22:20;93192.81;;;8.66;100.00
21658;BME280;10990;48.174;9.782;2023-04-01T11:25:07;93162.81;;;8.61;100.00
21658;BME280;10990;48.174;9.782;2023-04-01T11:28:03;93126.53;;;8.63;100.00
21658;BME280;10990;48.174;9.782;2023-04-01T11:30:49;93084.38;;;8.56;100.00
21658;BME280;10990;48.174;9.782;2023-04-01T11:33:24;93089.44;;;8.58;100.00
21658;BME280;10990;48.174;9.782;2023-04-01T11:36:14;93062.47;;;8.49;100.00
21658;BME280;10990;48.174;9.782;2023-04-01T11:39:02;93049.31;;;8.49;100.00
21658;BME280;10990;48.174;9.782;2023-04-01T11:42:03;93056.59;;;8.47;100.00
21658;BME280;10990;48.174;9.782;2023-04-01T11:45:10;93073.19;;;8.47;100.00
21658;BME280;10990;48.174;9.782;2023-04-01T11:48:03;93073.59;;;8.44;100.00
21658;BME280;10990;48.174;9.782;2023-04-01T11:50:46;93061.50;;;8.57;100.00
21658;BME280;10990;48.174;9.782;2023-04-01T11:53:27;93089.44;;;8.58;100.00
21658;BME280;10990;48.174;9.782;2023-04-01T11:56:02;93090.69;;;8.68;100.00
21658;BME280;10990;48.174;9.782;2023-04-01T12:01:36;93102.22;;;8.81;100.00
21658;BME280;10990;48.174;9.782;2023-04-01T12:04:47;93118.66;;;8.76;100.00
21658;BME280;10990;48.174;9.782;2023-04-01T12:07:25;93109.34;;;8.73;100.00
21658;BME280;10990;48.174;9.782;2023-04-01T12:10:02;93129.00;;;8.71;100.00
21658;BME280;10990;48.174;9.782;2023-04-01T12:12:36;93120.69;;;8.81;100.00
21658;BME280;10990;48.174;9.782;2023-04-01T12:15:17;93146.22;;;8.87;100.00
21658;BME280;10990;48.174;9.782;2023-04-01T12:17:49;93164.47;;;8.82;100.00
21658;BME280;10990;48.174;9.782;2023-04-01T12:20:29;93175.22;;;8.87;100.00
21658;BME280;10990;48.174;9.782;2023-04-01T12:23:09;93189.41;;;8.86;100.00
21658;BME280;10990;48.174;9.782;2023-04-01T12:25:56;93198.16;;;9.00;100.00
21658;BME280;10990;48.174;9.782;2023-04-01T12:28:39;93228.97;;;8.99;100.00
21658;BME280;10990;48.174;9.782;2023-04-01T12:31:20;93273.41;;;9.02;100.00
21658;BME280;10990;48.174;9.782;2023-04-01T12:34:28;93271.44;;;9.31;100.00
21658;BME280;10990;48.174;9.782;2023-04-01T12:37:08;93324.31;;;9.09;100.00
21658;BME280;10990;48.174;9.782;2023-04-01T12:39:48;93343.44;;;9.18;100.00
21658;BME280;10990;48.174;9.782;2023-04-01T12:42:31;93356.81;;;9.16;100.00
21658;BME280;10990;48.174;9.782;2023-04-01T12:45:17;93360.25;;;9.17;100.00
21658;BME280;10990;48.174;9.782;2023-04-01T12:48:06;93354.63;;;9.33;100.00
21658;BME280;10990;48.174;9.782;2023-04-01T12:51:04;93344.88;;;9.27;100.00
21658;BME280;10990;48.174;9.782;2023-04-01T12:53:49;93332.50;;;9.34;100.00
21658;BME280;10990;48.174;9.782;2023-04-01T12:56:31;93343.06;;;9.34;100.00
21658;BME280;10990;48.174;9.782;2023-04-01T12:59:21;93354.81;;;9.32;100.00
21658;BME280;10990;48.174;9.782;2023-04-01T13:02:01;93376.94;;;9.37;100.00
21658;BME280;10990;48.174;9.782;2023-04-01T13:04:54;93362.59;;;9.53;100.00
21658;BME280;10990;48.174;9.782;2023-04-01T13:07:32;93336.00;;;9.68;100.00
21658;BME280;10990;48.174;9.782;2023-04-01T13:10:09;93372.78;;;9.70;100.00
21658;BME280;10990;48.174;9.782;2023-04-01T13:13:00;93386.19;;;9.81;100.00
21658;BME280;10990;48.174;9.782;2023-04-01T13:15:37;93428.38;;;9.68;100.00
21658;BME280;10990;48.174;9.782;2023-04-01T13:18:18;93412.13;;;9.58;100.00
21658;BME280;10990;48.174;9.782;2023-04-01T13:20:55;93435.66;;;9.59;100.00
21658;BME280;10990;48.174;9.782;2023-04-01T13:23:44;93423.84;;;9.49;100.00
21658;BME280;10990;48.174;9.782;2023-04-01T13:26:19;93390.59;;;9.54;100.00
21658;BME280;10990;48.174;9.782;2023-04-01T13:28:53;93354.72;;;9.80;100.00
21658;BME280;10990;48.174;9.782;2023-04-01T13:31:33;93348.63;;;9.79;100.00
21658;BME280;10990;48.174;9.782;2023-04-01T13:34:12;93365.66;;;9.77;100.00
21658;BME280;10990;48.174;9.782;2023-04-01T13:36:54;93361.63;;;9.87;100.00
21658;BME280;10990;48.174;9.782;2023-04-01T13:42:21;93367.13;;;10.19;100.00
21658;BME280;10990;48.174;9.782;2023-04-01T13:44:54;93385.41;;;10.14;100.00
21658;BME280;10990;48.174;9.782;2023-04-01T13:50:57;93440.81;;;9.81;100.00
21658;BME280;10990;48.174;9.782;2023-04-01T13:53:49;93461.31;;;9.79;100.00
21658;BME280;10990;48.174;9.782;2023-04-01T13:56:37;93471.50;;;9.88;100.00
21658;BME280;10990;48.174;9.782;2023-04-01T14:02:33;93514.41;;;10.04;100.00
21658;BME280;10990;48.174;9.782;2023-04-01T14:05:19;93538.78;;;10.06;100.00
21658;BME280;10990;48.174;9.782;2023-04-01T14:07:59;93561.31;;;10.02;100.00
21658;BME280;10990;48.174;9.782;2023-04-01T14:10:36;93586.34;;;10.13;100.00
21658;BME280;10990;48.174;9.782;2023-04-01T14:13:13;93624.75;;;10.15;100.00
21658;BME280;10990;48.174;9.782;2023-04-01T14:18:45;93687.97;;;10.23;100.00
21658;BME280;10990;48.174;9.782;2023-04-01T14:21:29;93693.03;;;10.18;100.00
21658;BME280;10990;48.174;9.782;2023-04-01T14:24:20;93695.97;;;10.30;100.00
21658;BME280;10990;48.174;9.782;2023-04-01T14:27:19;93732.56;;;10.33;100.00
21658;BME280;10990;48.174;9.782;2023-04-01T14:30:02;93731.81;;;10.46;100.00
21658;BME280;10990;48.174;9.782;2023-04-01T14:32:39;93750.47;;;10.38;100.00
21658;BME280;10990;48.174;9.782;2023-04-01T14:35:21;93756.19;;;10.41;100.00
21658;BME280;10990;48.174;9.782;2023-04-01T14:38:27;93777.91;;;10.37;100.00
21658;BME280;10990;48.174;9.782;2023-04-01T14:40:58;93787.94;;;10.48;100.00
21658;BME280;10990;48.174;9.782;2023-04-01T14:43:47;93792.69;;;10.59;100.00
21658;BME280;10990;48.174;9.782;2023-04-01T14:46:26;93845.03;;;10.42;100.00
21658;BME280;10990;48.174;9.782;2023-04-01T14:48:59;93880.59;;;10.18;100.00
21658;BME280;10990;48.174;9.782;2023-04-01T14:51:31;93888.13;;;10.21;100.00
21658;BME280;10990;48.174;9.782;2023-04-01T14:54:03;93892.09;;;10.10;100.00
21658;BME280;10990;48.174;9.782;2023-04-01T14:56:39;93886.97;;;10.02;100.00
21658;BME280;10990;48.174;9.782;2023-04-01T14:59:25;93879.41;;;9.99;100.00
21658;BME280;10990;48.174;9.782;2023-04-01T15:01:57;93860.84;;;10.14;100.00
21658;BME280;10990;48.174;9.782;2023-04-01T15:07:42;93882.53;;;10.09;100.00
21658;BME280;10990;48.174;9.782;2023-04-01T15:13:13;93885.44;;;9.93;100.00
21658;BME280;10990;48.174;9.782;2023-04-01T15:15:54;93897.97;;;9.84;100.00
21658;BME280;10990;48.174;9.782;2023-04-01T15:18:35;93885.19;;;10.09;100.00
21658;BME280;10990;48.174;9.782;2023-04-01T15:21:17;93903.06;;;9.86;100.00